createdAt,value
2016-09-11T00:00:57.884Z,0
2016-09-11T00:01:56.898Z,0
2016-09-11T00:02:58.491Z,0
2016-09-11T00:03:58.945Z,0
2016-09-11T00:04:58.151Z,0
2016-09-11T00:05:59.245Z,0
2016-09-11T00:06:58.103Z,0
2016-09-11T00:07:58.489Z,0
2016-09-11T00:08:58.208Z,0
2016-09-11T00:09:58.632Z,0
2016-09-11T00:10:58.176Z,0
2016-09-11T00:11:58.627Z,0
2016-09-11T00:12:58.907Z,0
2016-09-11T00:13:58.264Z,0
2016-09-11T00:14:59.654Z,0
2016-09-11T00:15:58.780Z,0
2016-09-11T00:16:59.508Z,0
2016-09-11T00:17:59.208Z,0
2016-09-11T00:18:58.504Z,0
2016-09-11T00:19:58.146Z,0
2016-09-11T00:21:00.190Z,0
2016-09-11T00:21:58.417Z,0
2016-09-11T00:22:59.950Z,0
2016-09-11T00:23:59.012Z,0
2016-09-11T00:24:59.157Z,0
2016-09-11T00:25:58.501Z,0
2016-09-11T00:26:58.971Z,0
2016-09-11T00:27:59.670Z,0
2016-09-11T00:28:59.119Z,0
2016-09-11T00:29:58.542Z,0
2016-09-11T00:30:58.475Z,0
2016-09-11T00:31:59.013Z,0
2016-09-11T00:32:59.605Z,0
2016-09-11T00:33:58.821Z,0
2016-09-11T00:35:00.080Z,0
2016-09-11T00:35:58.558Z,0
2016-09-11T00:36:58.467Z,0
2016-09-11T00:37:58.809Z,0
2016-09-11T00:38:59.263Z,0
2016-09-11T00:39:59.598Z,0
2016-09-11T00:40:58.823Z,0
2016-09-11T00:41:59.316Z,0
2016-09-11T00:42:58.405Z,0
2016-09-11T00:44:00.161Z,0
2016-09-11T00:44:59.954Z,0
2016-09-11T00:45:59.119Z,0
2016-09-11T00:46:59.522Z,0
2016-09-11T00:47:59.904Z,0
2016-09-11T00:49:00.365Z,0
2016-09-11T00:49:59.877Z,0
2016-09-11T00:51:00.281Z,0
2016-09-11T00:52:00.896Z,0
2016-09-11T00:52:59.198Z,0
2016-09-11T00:54:00.123Z,0
2016-09-11T00:55:00.948Z,0
2016-09-11T00:55:59.218Z,0
2016-09-11T00:56:58.593Z,0
2016-09-11T00:57:59.701Z,0
2016-09-11T00:58:59.684Z,0
2016-09-11T00:59:59.225Z,0
2016-09-11T01:00:59.456Z,0
2016-09-11T01:01:59.823Z,0
2016-09-11T01:03:00.618Z,0
2016-09-11T01:04:00.258Z,0
2016-09-11T01:04:59.731Z,0
2016-09-11T01:06:01.181Z,0
2016-09-11T01:06:59.841Z,0
2016-09-11T01:07:59.173Z,0
2016-09-11T01:09:00.830Z,0
2016-09-11T01:10:00.377Z,0
2016-09-11T01:10:59.242Z,0
2016-09-11T01:11:59.535Z,0
2016-09-11T01:12:59.619Z,0
2016-09-11T01:13:59.529Z,0
2016-09-11T01:14:59.560Z,0
2016-09-11T01:15:59.714Z,0
2016-09-11T01:16:59.135Z,0
2016-09-11T01:17:59.618Z,0
2016-09-11T01:19:01.566Z,0
2016-09-11T01:19:59.843Z,0
2016-09-11T01:20:59.925Z,0
2016-09-11T01:22:00.124Z,0
2016-09-11T01:22:59.572Z,0
2016-09-11T01:23:59.886Z,0
2016-09-11T01:24:58.953Z,0
2016-09-11T01:25:59.367Z,0
2016-09-11T01:27:00.632Z,0
2016-09-11T01:28:01.020Z,0
2016-09-11T01:29:00.775Z,0
2016-09-11T01:29:59.619Z,0
2016-09-11T01:31:01.112Z,0
2016-09-11T01:32:00.512Z,0
2016-09-11T01:33:00.093Z,0
2016-09-11T01:34:00.346Z,0
2016-09-11T01:34:59.905Z,0
2016-09-11T01:35:59.887Z,0
2016-09-11T01:37:00.555Z,0
2016-09-11T01:38:01.757Z,0
2016-09-11T01:39:00.932Z,0
2016-09-11T01:40:02.080Z,0
2016-09-11T01:41:01.563Z,0
2016-09-11T01:42:00.401Z,0
2016-09-11T01:43:00.010Z,0
2016-09-11T01:44:00.453Z,0
2016-09-11T01:45:00.281Z,0
2016-09-11T01:46:01.650Z,0
2016-09-11T01:47:00.783Z,0
2016-09-11T01:48:00.877Z,0
2016-09-11T01:49:01.215Z,0
2016-09-11T01:50:01.046Z,0
2016-09-11T01:51:00.554Z,0
2016-09-11T01:52:00.646Z,0
2016-09-11T01:52:59.767Z,0
2016-09-11T01:54:02.270Z,0
2016-09-11T01:55:01.013Z,0
2016-09-11T01:56:02.049Z,0
2016-09-11T01:57:03.054Z,0
2016-09-11T01:58:00.886Z,0
2016-09-11T01:59:02.956Z,0
2016-09-11T02:00:01.757Z,0
2016-09-11T02:01:02.316Z,0
2016-09-11T02:02:01.087Z,0
2016-09-11T02:03:00.983Z,0
2016-09-11T02:04:01.921Z,0
2016-09-11T02:05:01.030Z,0
2016-09-11T02:06:00.911Z,0
2016-09-11T02:07:01.729Z,0
2016-09-11T02:07:59.955Z,0
2016-09-11T02:09:01.102Z,0
2016-09-11T02:10:02.215Z,0
2016-09-11T02:11:01.048Z,0
2016-09-11T02:12:03.448Z,0
2016-09-11T02:13:02.523Z,0
2016-09-11T02:14:01.869Z,0
2016-09-11T02:15:02.600Z,0
2016-09-11T02:16:02.934Z,0
2016-09-11T02:17:00.709Z,0
2016-09-11T02:18:01.738Z,0
2016-09-11T02:19:01.612Z,0
2016-09-11T02:20:01.365Z,0
2016-09-11T02:21:00.703Z,0
2016-09-11T02:22:01.744Z,0
2016-09-11T02:23:02.139Z,0
2016-09-11T02:24:01.838Z,0
2016-09-11T02:25:01.940Z,0
2016-09-11T02:26:02.482Z,0
2016-09-11T02:27:01.978Z,0
2016-09-11T02:28:01.750Z,0
2016-09-11T02:29:02.484Z,0
2016-09-11T02:30:01.869Z,0
2016-09-11T02:31:03.355Z,0
2016-09-11T02:32:01.272Z,0
2016-09-11T02:33:01.242Z,0
2016-09-11T02:34:04.928Z,0
2016-09-11T02:35:02.940Z,0
2016-09-11T02:36:01.499Z,0
2016-09-11T02:37:02.843Z,0
2016-09-11T02:38:01.321Z,0
2016-09-11T02:39:01.356Z,0
2016-09-11T02:40:01.760Z,0
2016-09-11T02:41:01.569Z,0
2016-09-11T02:42:03.641Z,0
2016-09-11T02:43:03.203Z,0
2016-09-11T02:44:01.432Z,0
2016-09-11T02:45:01.940Z,0
2016-09-11T02:46:02.666Z,0
2016-09-11T02:47:02.044Z,0
2016-09-11T02:48:01.604Z,0
2016-09-11T02:49:01.800Z,0
2016-09-11T02:50:02.866Z,0
2016-09-11T02:51:01.792Z,0
2016-09-11T02:52:01.456Z,0
2016-09-11T02:53:01.393Z,0
2016-09-11T02:54:01.833Z,0
2016-09-11T02:55:02.067Z,0
2016-09-11T02:56:01.867Z,0
2016-09-11T02:57:02.227Z,0
2016-09-11T02:58:01.457Z,0
2016-09-11T02:59:02.275Z,0
2016-09-11T03:00:01.446Z,0
2016-09-11T03:01:02.139Z,0
2016-09-11T03:02:01.240Z,0
2016-09-11T03:03:01.876Z,0
2016-09-11T03:04:02.292Z,0
2016-09-11T03:05:02.850Z,0
2016-09-11T03:06:02.844Z,0
2016-09-11T03:07:02.344Z,0
2016-09-11T03:08:03.579Z,0
2016-09-11T03:09:02.342Z,0
2016-09-11T03:10:03.367Z,0
2016-09-11T03:11:02.172Z,0
2016-09-11T03:12:01.858Z,0
2016-09-11T03:13:02.780Z,0
2016-09-11T03:14:02.478Z,0
2016-09-11T03:15:01.927Z,0
2016-09-11T03:16:03.079Z,0
2016-09-11T03:17:01.855Z,0
2016-09-11T03:18:03.343Z,0
2016-09-11T03:19:02.390Z,0
2016-09-11T03:20:02.547Z,0
2016-09-11T03:21:02.339Z,0
2016-09-11T03:22:02.153Z,0
2016-09-11T03:23:03.643Z,0
2016-09-11T03:24:01.900Z,0
2016-09-11T03:25:04.414Z,0
2016-09-11T03:26:03.176Z,0
2016-09-11T03:27:03.070Z,0
2016-09-11T03:28:03.040Z,0
2016-09-11T03:29:02.496Z,0
2016-09-11T03:30:02.629Z,0
2016-09-11T03:31:02.566Z,0
2016-09-11T03:32:02.142Z,0
2016-09-11T03:33:04.060Z,0
2016-09-11T03:34:02.445Z,0
2016-09-11T03:35:03.463Z,0
2016-09-11T03:36:04.193Z,0
2016-09-11T03:37:03.569Z,0
2016-09-11T03:38:03.296Z,0
2016-09-11T03:39:02.884Z,0
2016-09-11T03:40:02.736Z,0
2016-09-11T03:41:02.004Z,0
2016-09-11T03:42:04.157Z,0
2016-09-11T03:43:02.173Z,0
2016-09-11T03:44:02.559Z,0
2016-09-11T03:45:03.104Z,0
2016-09-11T03:46:02.058Z,0
2016-09-11T03:47:02.555Z,0
2016-09-11T03:48:03.193Z,0
2016-09-11T03:49:04.698Z,0
2016-09-11T03:50:02.657Z,0
2016-09-11T03:51:02.483Z,0
2016-09-11T03:52:04.117Z,0
2016-09-11T03:53:02.530Z,0
2016-09-11T03:54:04.767Z,0
2016-09-11T03:55:03.408Z,0
2016-09-11T03:56:03.498Z,0
2016-09-11T03:57:05.877Z,0
2016-09-11T03:58:03.973Z,0
2016-09-11T03:59:04.384Z,0
2016-09-11T04:00:03.569Z,0
2016-09-11T04:01:04.444Z,0
2016-09-11T04:02:03.460Z,0
2016-09-11T04:03:03.824Z,0
2016-09-11T04:04:03.792Z,0
2016-09-11T04:05:04.243Z,0
2016-09-11T04:06:03.306Z,0
2016-09-11T04:07:04.356Z,0
2016-09-11T04:08:03.828Z,0
2016-09-11T04:09:03.363Z,0
2016-09-11T04:10:03.741Z,0
2016-09-11T04:11:04.750Z,0
2016-09-11T04:12:04.087Z,0
2016-09-11T04:13:03.305Z,0
2016-09-11T04:14:04.195Z,0
2016-09-11T04:15:03.572Z,0
2016-09-11T04:16:04.298Z,0
2016-09-11T04:17:03.320Z,4
2016-09-11T04:18:03.922Z,0
2016-09-11T04:19:04.000Z,0
2016-09-11T04:20:04.452Z,4
2016-09-11T04:21:04.007Z,4
2016-09-11T04:22:03.959Z,4
2016-09-11T04:23:04.801Z,4
2016-09-11T04:24:03.853Z,4
2016-09-11T04:25:15.963Z,8
2016-09-11T04:26:05.523Z,8
2016-09-11T04:27:04.520Z,12
2016-09-11T04:28:04.124Z,12
2016-09-11T04:29:03.747Z,16
2016-09-11T04:30:04.123Z,20
2016-09-11T04:31:05.542Z,24
2016-09-11T04:32:05.445Z,28
2016-09-11T04:33:05.698Z,36
2016-09-11T04:34:03.951Z,40
2016-09-11T04:35:03.720Z,44
2016-09-11T04:36:05.672Z,56
2016-09-11T04:37:04.575Z,60
2016-09-11T04:38:04.527Z,72
2016-09-11T04:39:04.215Z,84
2016-09-11T04:40:03.031Z,96
2016-09-11T04:41:04.667Z,108
2016-09-11T04:42:04.255Z,124
2016-09-11T04:43:04.045Z,140
2016-09-11T04:44:03.774Z,160
2016-09-11T04:45:03.976Z,180
2016-09-11T04:46:05.041Z,200
2016-09-11T04:47:06.564Z,220
2016-09-11T04:48:03.970Z,248
2016-09-11T04:49:03.867Z,272
2016-09-11T04:50:05.541Z,300
2016-09-11T04:51:04.598Z,332
2016-09-11T04:52:04.224Z,364
2016-09-11T04:53:05.043Z,396
2016-09-11T04:54:04.633Z,424
2016-09-11T04:55:04.810Z,460
2016-09-11T04:56:05.269Z,496
2016-09-11T04:57:06.159Z,536
2016-09-11T04:58:05.733Z,576
2016-09-11T04:59:04.818Z,616
2016-09-11T05:00:05.609Z,656
2016-09-11T05:01:05.414Z,700
2016-09-11T05:02:04.172Z,744
2016-09-11T05:03:06.425Z,792
2016-09-11T05:04:05.597Z,840
2016-09-11T05:05:04.767Z,888
2016-09-11T05:06:04.746Z,936
2016-09-11T05:07:04.355Z,992
2016-09-11T05:08:05.433Z,1044
2016-09-11T05:09:05.206Z,1104
2016-09-11T05:10:05.764Z,1160
2016-09-11T05:11:05.116Z,1224
2016-09-11T05:12:06.127Z,1288
2016-09-11T05:13:06.540Z,1356
2016-09-11T05:14:04.926Z,1420
2016-09-11T05:15:05.941Z,1488
2016-09-11T05:16:05.809Z,1564
2016-09-11T05:17:07.572Z,1640
2016-09-11T05:18:05.874Z,1704
2016-09-11T05:19:06.520Z,1776
2016-09-11T05:20:06.428Z,1856
2016-09-11T05:21:04.847Z,1940
2016-09-11T05:22:06.467Z,2028
2016-09-11T05:23:07.791Z,2112
2016-09-11T05:24:05.793Z,2192
2016-09-11T05:25:05.485Z,2276
2016-09-11T05:26:05.286Z,2376
2016-09-11T05:27:04.823Z,2476
2016-09-11T05:28:06.990Z,2572
2016-09-11T05:29:08.025Z,2664
2016-09-11T05:30:05.694Z,2744
2016-09-11T05:31:05.760Z,2828
2016-09-11T05:32:06.945Z,2912
2016-09-11T05:33:07.441Z,3004
2016-09-11T05:34:06.292Z,3092
2016-09-11T05:35:05.644Z,3168
2016-09-11T05:36:05.975Z,3252
2016-09-11T05:37:06.365Z,3344
2016-09-11T05:38:04.869Z,3432
2016-09-11T05:39:07.702Z,3528
2016-09-11T05:40:05.999Z,3636
2016-09-11T05:41:05.667Z,3728
2016-09-11T05:42:06.693Z,3800
2016-09-11T05:43:07.260Z,3944
2016-09-11T05:44:06.417Z,4060
2016-09-11T05:45:06.635Z,4184
2016-09-11T05:46:06.536Z,4384
2016-09-11T05:47:07.413Z,4612
2016-09-11T05:48:05.631Z,4872
2016-09-11T05:49:06.592Z,4868
2016-09-11T05:50:06.147Z,4968
2016-09-11T05:51:05.639Z,5040
2016-09-11T05:52:06.413Z,5044
2016-09-11T05:53:06.216Z,5244
2016-09-11T05:54:07.197Z,5192
2016-09-11T05:55:06.566Z,5300
2016-09-11T05:56:06.331Z,5444
2016-09-11T05:57:05.677Z,5316
2016-09-11T05:58:06.675Z,5636
2016-09-11T05:59:05.738Z,5552
2016-09-11T06:00:06.454Z,5544
2016-09-11T06:01:06.806Z,5596
2016-09-11T06:02:07.062Z,5680
2016-09-11T06:03:05.899Z,5808
2016-09-11T06:04:06.775Z,5848
2016-09-11T06:05:05.479Z,5936
2016-09-11T06:06:07.365Z,5988
2016-09-11T06:07:07.515Z,6024
2016-09-11T06:08:07.090Z,6216
2016-09-11T06:09:07.650Z,6416
2016-09-11T06:10:07.836Z,6520
2016-09-11T06:11:06.910Z,6752
2016-09-11T06:12:07.691Z,6976
2016-09-11T06:13:07.561Z,6704
2016-09-11T06:14:07.035Z,6800
2016-09-11T06:15:06.572Z,7028
2016-09-11T06:16:06.348Z,7112
2016-09-11T06:17:06.191Z,7140
2016-09-11T06:18:07.847Z,7264
2016-09-11T06:19:06.742Z,7392
2016-09-11T06:20:06.754Z,7500
2016-09-11T06:21:06.867Z,7608
2016-09-11T06:22:06.836Z,7700
2016-09-11T06:23:08.887Z,7888
2016-09-11T06:24:06.616Z,7984
2016-09-11T06:25:08.549Z,8084
2016-09-11T06:26:08.068Z,8168
2016-09-11T06:27:06.561Z,8320
2016-09-11T06:28:06.866Z,8400
2016-09-11T06:29:09.306Z,8496
2016-09-11T06:30:06.677Z,8568
2016-09-11T06:31:06.818Z,8652
2016-09-11T06:32:07.786Z,8752
2016-09-11T06:33:07.255Z,8824
2016-09-11T06:34:06.787Z,8936
2016-09-11T06:35:06.288Z,9032
2016-09-11T06:36:07.042Z,9164
2016-09-11T06:37:06.369Z,9280
2016-09-11T06:38:06.688Z,9360
2016-09-11T06:39:07.200Z,9468
2016-09-11T06:40:08.901Z,9580
2016-09-11T06:41:06.971Z,9712
2016-09-11T06:42:06.743Z,9824
2016-09-11T06:43:08.406Z,9960
2016-09-11T06:44:09.054Z,10144
2016-09-11T06:45:07.025Z,10304
2016-09-11T06:46:07.432Z,10460
2016-09-11T06:47:07.355Z,10584
2016-09-11T06:48:08.180Z,10692
2016-09-11T06:49:07.108Z,10824
2016-09-11T06:50:07.374Z,10952
2016-09-11T06:51:08.138Z,11084
2016-09-11T06:52:06.873Z,11220
2016-09-11T06:53:08.926Z,11364
2016-09-11T06:54:06.706Z,11468
2016-09-11T06:55:06.925Z,11556
2016-09-11T06:56:06.901Z,11652
2016-09-11T06:57:07.329Z,11816
2016-09-11T06:58:07.520Z,11956
2016-09-11T06:59:08.601Z,12060
2016-09-11T07:00:10.045Z,12176
2016-09-11T07:01:09.858Z,12228
2016-09-11T07:02:08.373Z,12328
2016-09-11T07:03:08.845Z,12436
2016-09-11T07:04:07.918Z,12568
2016-09-11T07:05:08.802Z,12700
2016-09-11T07:06:08.057Z,12884
2016-09-11T07:07:07.290Z,13168
2016-09-11T07:08:08.519Z,13636
2016-09-11T07:09:08.465Z,14264
2016-09-11T07:10:07.079Z,14948
2016-09-11T07:11:07.316Z,15640
2016-09-11T07:12:08.325Z,16068
2016-09-11T07:13:07.473Z,15820
2016-09-11T07:14:07.439Z,15312
2016-09-11T07:15:11.552Z,14776
2016-09-11T07:16:07.925Z,14472
2016-09-11T07:17:09.410Z,14356
2016-09-11T07:18:08.530Z,14328
2016-09-11T07:19:07.525Z,14416
2016-09-11T07:20:09.748Z,14532
2016-09-11T07:21:07.416Z,14624
2016-09-11T07:22:09.474Z,14712
2016-09-11T07:23:09.499Z,14848
2016-09-11T07:24:09.436Z,14964
2016-09-11T07:25:10.644Z,15104
2016-09-11T07:26:08.932Z,15252
2016-09-11T07:27:09.594Z,15380
2016-09-11T07:28:08.552Z,15540
2016-09-11T07:29:07.525Z,15752
2016-09-11T07:30:10.712Z,15972
2016-09-11T07:31:08.410Z,16228
2016-09-11T07:32:07.595Z,17008
2016-09-11T07:33:08.450Z,23744
2016-09-11T07:34:08.164Z,30656
2016-09-11T07:35:09.724Z,31168
2016-09-11T07:36:08.034Z,33728
2016-09-11T07:37:10.504Z,35200
2016-09-11T07:38:11.815Z,37312
2016-09-11T07:39:09.475Z,37888
2016-09-11T07:40:08.666Z,35040
2016-09-11T07:41:09.387Z,26272
2016-09-11T07:42:10.102Z,18656
2016-09-11T07:43:09.372Z,17600
2016-09-11T07:44:09.234Z,17504
2016-09-11T07:45:10.028Z,17568
2016-09-11T07:46:09.644Z,17632
2016-09-11T07:47:09.574Z,17824
2016-09-11T07:48:08.970Z,18176
2016-09-11T07:49:09.778Z,19424
2016-09-11T07:50:08.572Z,25856
2016-09-11T07:51:08.887Z,32640
2016-09-11T07:52:09.060Z,38720
2016-09-11T07:53:09.991Z,40960
2016-09-11T07:54:09.716Z,38304
2016-09-11T07:55:10.559Z,37600
2016-09-11T07:56:11.064Z,37760
2016-09-11T07:57:10.384Z,38880
2016-09-11T07:58:09.834Z,41152
2016-09-11T07:59:09.626Z,40096
2016-09-11T08:00:08.984Z,39648
2016-09-11T08:01:10.047Z,40224
2016-09-11T08:02:09.621Z,40704
2016-09-11T08:03:09.541Z,41504
2016-09-11T08:04:10.204Z,43104
2016-09-11T08:05:09.700Z,43040
2016-09-11T08:06:10.492Z,42112
2016-09-11T08:07:09.377Z,42368
2016-09-11T08:08:11.671Z,43200
2016-09-11T08:09:10.044Z,43104
2016-09-11T08:10:08.505Z,43328
2016-09-11T08:11:10.498Z,44096
2016-09-11T08:12:10.033Z,41696
2016-09-11T08:13:09.517Z,40096
2016-09-11T08:14:10.441Z,42592
2016-09-11T08:15:10.288Z,44832
2016-09-11T08:16:10.107Z,46080
2016-09-11T08:17:10.794Z,45280
2016-09-11T08:18:09.826Z,45664
2016-09-11T08:19:09.969Z,47040
2016-09-11T08:20:10.280Z,46624
2016-09-11T08:21:10.862Z,46816
2016-09-11T08:22:10.064Z,46880
2016-09-11T08:23:09.768Z,44672
2016-09-11T08:24:09.896Z,46368
2016-09-11T08:25:10.711Z,47296
2016-09-11T08:26:10.946Z,46144
2016-09-11T08:27:10.811Z,47008
2016-09-11T08:28:10.709Z,47008
2016-09-11T08:29:11.022Z,46080
2016-09-11T08:30:12.764Z,47744
2016-09-11T08:31:10.116Z,47328
2016-09-11T08:32:09.971Z,48576
2016-09-11T08:33:10.772Z,49856
2016-09-11T08:34:09.111Z,48224
2016-09-11T08:35:10.829Z,42592
2016-09-11T08:36:10.857Z,41120
2016-09-11T08:37:11.405Z,36576
2016-09-11T08:38:10.706Z,42144
2016-09-11T08:39:11.885Z,41280
2016-09-11T08:40:10.468Z,36960
2016-09-11T08:41:14.042Z,39712
2016-09-11T08:42:11.616Z,38272
2016-09-11T08:43:11.407Z,46400
2016-09-11T08:44:10.605Z,46304
2016-09-11T08:45:11.471Z,47552
2016-09-11T08:46:11.532Z,50368
2016-09-11T08:47:11.926Z,49056
2016-09-11T08:48:10.382Z,49856
2016-09-11T08:49:10.643Z,49600
2016-09-11T08:50:11.641Z,52896
2016-09-11T08:51:10.948Z,51424
2016-09-11T08:52:10.699Z,51520
2016-09-11T08:53:09.721Z,52480
2016-09-11T08:54:10.903Z,49152
2016-09-11T08:55:11.941Z,48032
2016-09-11T08:56:11.840Z,45568
2016-09-11T08:57:14.290Z,44512
2016-09-11T08:58:10.695Z,50816
2016-09-11T08:59:11.685Z,56992
2016-09-11T09:00:11.310Z,56896
2016-09-11T09:01:10.861Z,58432
2016-09-11T09:02:10.027Z,57984
2016-09-11T09:03:11.990Z,57344
2016-09-11T09:04:11.330Z,57216
2016-09-11T09:05:12.293Z,60128
2016-09-11T09:06:12.801Z,59328
2016-09-11T09:07:10.949Z,59744
2016-09-11T09:08:11.640Z,62272
2016-09-11T09:09:11.923Z,63424
2016-09-11T09:10:11.289Z,65312
2016-09-11T09:11:11.645Z,63104
2016-09-11T09:12:11.489Z,61440
2016-09-11T09:13:12.420Z,60768
2016-09-11T09:14:13.082Z,60352
2016-09-11T09:15:12.050Z,57696
2016-09-11T09:16:11.569Z,56768
2016-09-11T09:17:11.784Z,56032
2016-09-11T09:18:11.574Z,53248
2016-09-11T09:19:12.416Z,48960
2016-09-11T09:20:11.279Z,46272
2016-09-11T09:21:12.278Z,51136
2016-09-11T09:22:11.643Z,64960
2016-09-11T09:23:12.153Z,63424
2016-09-11T09:24:11.593Z,56416
2016-09-11T09:25:11.606Z,56992
2016-09-11T09:26:12.515Z,59040
2016-09-11T09:27:12.106Z,68128
2016-09-11T09:28:11.349Z,60320
2016-09-11T09:29:12.182Z,59456
2016-09-11T09:30:12.058Z,61088
2016-09-11T09:31:11.721Z,58880
2016-09-11T09:32:11.878Z,58560
2016-09-11T09:33:12.525Z,55776
2016-09-11T09:34:12.022Z,55424
2016-09-11T09:35:11.688Z,57216
2016-09-11T09:36:13.265Z,57056
2016-09-11T09:37:13.665Z,56704
2016-09-11T09:38:13.175Z,60768
2016-09-11T09:39:12.289Z,54848
2016-09-11T09:40:13.552Z,56640
2016-09-11T09:41:13.792Z,55648
2016-09-11T09:42:11.971Z,42432
2016-09-11T09:43:13.613Z,36800
2016-09-11T09:44:13.375Z,37856
2016-09-11T09:45:12.235Z,39072
2016-09-11T09:46:13.347Z,36960
2016-09-11T09:47:13.501Z,33248
2016-09-11T09:48:12.951Z,32064
2016-09-11T09:49:12.331Z,33088
2016-09-11T09:50:13.260Z,32032
2016-09-11T09:51:12.945Z,33952
2016-09-11T09:52:15.344Z,33504
2016-09-11T09:53:12.719Z,35392
2016-09-11T09:54:13.238Z,31264
2016-09-11T09:55:13.019Z,28416
2016-09-11T09:56:12.226Z,28480
2016-09-11T09:57:12.599Z,28320
2016-09-11T09:58:13.312Z,28800
2016-09-11T09:59:13.843Z,28832
2016-09-11T10:00:14.725Z,28352
2016-09-11T10:01:13.186Z,29088
2016-09-11T10:02:13.794Z,29984
2016-09-11T10:03:12.635Z,29600
2016-09-11T10:04:14.609Z,29728
2016-09-11T10:05:12.210Z,29504
2016-09-11T10:06:13.694Z,29376
2016-09-11T10:07:12.705Z,28992
2016-09-11T10:08:11.776Z,28992
2016-09-11T10:09:13.635Z,29248
2016-09-11T10:10:12.987Z,29216
2016-09-11T10:11:15.321Z,29568
2016-09-11T10:12:14.035Z,29760
2016-09-11T10:13:15.672Z,29792
2016-09-11T10:14:14.651Z,30016
2016-09-11T10:15:14.779Z,29856
2016-09-11T10:16:14.062Z,30624
2016-09-11T10:17:15.469Z,31328
2016-09-11T10:18:14.471Z,31520
2016-09-11T10:19:13.605Z,31424
2016-09-11T10:20:13.625Z,31072
2016-09-11T10:21:14.392Z,29504
2016-09-11T10:22:13.354Z,28096
2016-09-11T10:23:14.440Z,27136
2016-09-11T10:24:14.451Z,27424
2016-09-11T10:25:12.926Z,29088
2016-09-11T10:26:14.637Z,26976
2016-09-11T10:27:15.512Z,26624
2016-09-11T10:28:15.639Z,27648
2016-09-11T10:29:13.501Z,29312
2016-09-11T10:30:14.135Z,28896
2016-09-11T10:31:14.305Z,28800
2016-09-11T10:32:13.694Z,26272
2016-09-11T10:33:15.984Z,29824
2016-09-11T10:34:13.811Z,26688
2016-09-11T10:35:14.345Z,30784
2016-09-11T10:36:14.053Z,31008
2016-09-11T10:37:14.670Z,30112
2016-09-11T10:38:15.028Z,29888
2016-09-11T10:39:15.556Z,30272
2016-09-11T10:40:14.393Z,29472
2016-09-11T10:41:13.852Z,29792
2016-09-11T10:42:13.734Z,29440
2016-09-11T10:43:16.098Z,28832
2016-09-11T10:44:14.727Z,28224
2016-09-11T10:45:14.833Z,28672
2016-09-11T10:46:15.549Z,27744
2016-09-11T10:47:14.133Z,28736
2016-09-11T10:48:14.378Z,31040
2016-09-11T10:49:15.709Z,32320
2016-09-11T10:50:15.858Z,32736
2016-09-11T10:51:15.977Z,32384
2016-09-11T10:52:16.460Z,32320
2016-09-11T10:53:14.628Z,33888
2016-09-11T10:54:15.593Z,35072
2016-09-11T10:55:16.722Z,35360
2016-09-11T10:56:13.896Z,35648
2016-09-11T10:57:14.699Z,28864
2016-09-11T10:58:14.392Z,28960
2016-09-11T10:59:17.170Z,26752
2016-09-11T11:00:16.475Z,25536
2016-09-11T11:01:14.651Z,24864
2016-09-11T11:02:17.248Z,28448
2016-09-11T11:03:14.253Z,36928
2016-09-11T11:04:18.835Z,31168
2016-09-11T11:05:15.631Z,23872
2016-09-11T11:06:15.599Z,21472
2016-09-11T11:07:16.243Z,20512
2016-09-11T11:08:15.875Z,22848
2016-09-11T11:09:14.527Z,29536
2016-09-11T11:10:16.224Z,22432
2016-09-11T11:11:15.202Z,26624
2016-09-11T11:12:17.583Z,33536
2016-09-11T11:13:17.188Z,36672
2016-09-11T11:14:17.536Z,30912
2016-09-11T11:15:16.725Z,39328
2016-09-11T11:16:16.604Z,42304
2016-09-11T11:17:16.371Z,43904
2016-09-11T11:18:17.005Z,46880
2016-09-11T11:19:16.506Z,46720
2016-09-11T11:20:15.668Z,44768
2016-09-11T11:21:16.639Z,46240
2016-09-11T11:22:16.364Z,46336
2016-09-11T11:23:15.818Z,44160
2016-09-11T11:24:17.269Z,41408
2016-09-11T11:25:17.872Z,43328
2016-09-11T11:26:17.004Z,44896
2016-09-11T11:27:16.298Z,43360
2016-09-11T11:28:15.090Z,45472
2016-09-11T11:29:15.821Z,44672
2016-09-11T11:30:15.998Z,41152
2016-09-11T11:31:16.035Z,39232
2016-09-11T11:32:16.419Z,37280
2016-09-11T11:33:17.542Z,37120
2016-09-11T11:34:15.665Z,40512
2016-09-11T11:35:15.930Z,40256
2016-09-11T11:36:16.897Z,41696
2016-09-11T11:37:17.069Z,39520
2016-09-11T11:38:16.634Z,39264
2016-09-11T11:39:19.009Z,38560
2016-09-11T11:40:17.226Z,41856
2016-09-11T11:41:16.032Z,41600
2016-09-11T11:42:18.199Z,42784
2016-09-11T11:43:19.228Z,44544
2016-09-11T11:44:16.835Z,47872
2016-09-11T11:45:16.020Z,47904
2016-09-11T11:46:17.465Z,47104
2016-09-11T11:47:17.296Z,42528
2016-09-11T11:48:23.364Z,41696
2016-09-11T11:49:16.430Z,39328
2016-09-11T11:50:16.670Z,37024
2016-09-11T11:51:16.568Z,36800
2016-09-11T11:52:17.366Z,36544
2016-09-11T11:53:16.730Z,36224
2016-09-11T11:54:16.626Z,35616
2016-09-11T11:55:17.090Z,37024
2016-09-11T11:56:17.256Z,39616
2016-09-11T11:57:19.370Z,38176
2016-09-11T11:58:17.252Z,37440
2016-09-11T11:59:17.313Z,39296
2016-09-11T12:00:18.555Z,45088
2016-09-11T12:01:16.834Z,44544
2016-09-11T12:02:17.143Z,42496
2016-09-11T12:03:17.112Z,50048
2016-09-11T12:04:18.598Z,52896
2016-09-11T12:05:18.660Z,54816
2016-09-11T12:06:17.612Z,51744
2016-09-11T12:07:17.553Z,50240
2016-09-11T12:08:16.787Z,49568
2016-09-11T12:09:19.364Z,46976
2016-09-11T12:10:17.221Z,52160
2016-09-11T12:11:18.149Z,49088
2016-09-11T12:12:19.332Z,47040
2016-09-11T12:13:17.972Z,46304
2016-09-11T12:14:18.555Z,47744
2016-09-11T12:15:19.112Z,52544
2016-09-11T12:16:18.125Z,44896
2016-09-11T12:17:17.995Z,39168
2016-09-11T12:18:18.320Z,33408
2016-09-11T12:19:18.503Z,31424
2016-09-11T12:20:19.122Z,36160
2016-09-11T12:21:18.411Z,43104
2016-09-11T12:22:18.903Z,44480
2016-09-11T12:23:18.458Z,40800
2016-09-11T12:24:17.742Z,38496
2016-09-11T12:25:19.043Z,37408
2016-09-11T12:26:18.447Z,36192
2016-09-11T12:27:17.781Z,36448
2016-09-11T12:28:18.027Z,36128
2016-09-11T12:29:17.558Z,39776
2016-09-11T12:30:18.245Z,35552
2016-09-11T12:31:18.490Z,33920
2016-09-11T12:32:19.005Z,33088
2016-09-11T12:33:18.347Z,31936
2016-09-11T12:34:20.926Z,29184
2016-09-11T12:35:18.843Z,28128
2016-09-11T12:36:18.137Z,26848
2016-09-11T12:37:20.655Z,25120
2016-09-11T12:38:18.698Z,23872
2016-09-11T12:39:19.206Z,23328
2016-09-11T12:40:18.381Z,21920
2016-09-11T12:41:18.611Z,22272
2016-09-11T12:42:20.098Z,23136
2016-09-11T12:43:18.467Z,23008
2016-09-11T12:44:19.715Z,24160
2016-09-11T12:45:18.267Z,26720
2016-09-11T12:46:19.170Z,28736
2016-09-11T12:47:20.213Z,27584
2016-09-11T12:48:18.786Z,24224
2016-09-11T12:49:20.928Z,26176
2016-09-11T12:50:19.191Z,28800
2016-09-11T12:51:18.701Z,27872
2016-09-11T12:52:19.069Z,26880
2016-09-11T12:53:18.306Z,28320
2016-09-11T12:54:19.649Z,28928
2016-09-11T12:55:19.099Z,28960
2016-09-11T12:56:19.579Z,27936
2016-09-11T12:57:20.307Z,27552
2016-09-11T12:58:19.522Z,26976
2016-09-11T12:59:22.181Z,25408
2016-09-11T13:00:19.362Z,25184
2016-09-11T13:01:19.886Z,28160
2016-09-11T13:02:18.669Z,28832
2016-09-11T13:03:19.445Z,26624
2016-09-11T13:04:20.266Z,24704
2016-09-11T13:05:21.249Z,23712
2016-09-11T13:06:19.783Z,22336
2016-09-11T13:07:18.721Z,21120
2016-09-11T13:08:19.163Z,20704
2016-09-11T13:09:20.130Z,20864
2016-09-11T13:10:20.159Z,21760
2016-09-11T13:11:21.168Z,23168
2016-09-11T13:12:19.367Z,23072
2016-09-11T13:13:21.669Z,22016
2016-09-11T13:14:21.543Z,22176
2016-09-11T13:15:22.462Z,22144
2016-09-11T13:16:21.090Z,24288
2016-09-11T13:17:19.512Z,24896
2016-09-11T13:18:21.037Z,24000
2016-09-11T13:19:19.940Z,25536
2016-09-11T13:20:20.550Z,25824
2016-09-11T13:21:20.472Z,22080
2016-09-11T13:22:22.277Z,19936
2016-09-11T13:23:19.991Z,19648
2016-09-11T13:24:19.647Z,19936
2016-09-11T13:25:21.221Z,19936
2016-09-11T13:26:19.810Z,19456
2016-09-11T13:27:21.672Z,18784
2016-09-11T13:28:20.812Z,18368
2016-09-11T13:29:21.204Z,17984
2016-09-11T13:30:21.777Z,17376
2016-09-11T13:31:22.307Z,17408
2016-09-11T13:32:21.306Z,17280
2016-09-11T13:33:19.865Z,17056
2016-09-11T13:34:20.151Z,17056